• Join FlightAware (Why Join?)
  • Login
  • US Flag 
08:02AM EDT


 

Airport Tracker/Info


-or-


 

Live Flight TrackerFlight Track Log ✈ SWA34 ✈ 07-May-2013 ✈ KHOU - KDAL

Flight Track Log - Related Links

Times and Time Zones

All times are in EDT time to prevent confusion due to time zone crossing. See the SWA34 flight status page for this flight to view local times or setup timezone preferences in your user account.

Time Position Orientation Groundspeed Altitude Reporting Facility
EDT Latitude Longitude Course Direction KTS MPH feet Rate Location/Type
03:37PM 29.6308 -95.2633 104° East 197 227 700  Level Houston Center
03:38PM 29.6272 -95.2469 104° East 173 199 1,500 1,980 Climbing Houston Center
03:39PM 29.6725 -95.2256 22° Northeast 238 274 3,200 2,160 Climbing Houston Center
03:40PM 29.7397 -95.2564 338° Northwest 267 307 5,900 3,000 Climbing Houston Center
03:41PM 29.8014 -95.3031 327° Northwest 261 300 9,500 2,400 Climbing Houston Center
03:42PM 29.8831 -95.3211 349° North 297 342 11,000 2,400 Climbing Houston Center
03:43PM 29.9925 -95.3472 348° North 329 379 14,600 2,700 Climbing Houston Center
03:44PM 30.0858 -95.3697 348° North 340 391 16,700 1,920 Climbing Houston Center
03:45PM 30.1858 -95.3942 348° North 362 417 18,600 1,920 Climbing Houston Center
03:46PM 30.2897 -95.4183 349° North 377 434 20,700 1,860 Climbing Houston Center
03:47PM 30.3964 -95.4444 348° North 388 447 22,500 1,620 Climbing Houston Center
03:48PM 30.5058 -95.4692 349° North 397 457 24,100 1,560 Climbing Houston Center
03:49PM 30.6361 -95.5258 339° North 414 476 25,800 1,500 Climbing Houston Center
03:50PM 30.7414 -95.5714 340° North 417 480 27,300 1,500 Climbing Houston Center
03:51PM 30.8531 -95.6200 340° North 424 488 29,000 1,200 Climbing Houston Center
03:52PM 30.9644 -95.6694 339° North 424 488 29,800 480 Climbing Houston Center
03:53PM 31.0797 -95.7197 340° North 435 501 30,000 -60 Climbing Houston Center
03:54PM 31.2158 -95.7794 339° North 432 497 29,700 -780 Descending Houston Center
03:55PM 31.3372 -95.8422 336° Northwest 425 489 28,400 -1,080 Descending Fort Worth Center
03:56PM 31.4156 -95.9286 317° Northwest 400 460 27,400 -1,020 Descending Fort Worth Center
03:57PM 31.5000 -96.0197 317° Northwest 400 460 26,400 -1,020 Descending Fort Worth Center
03:58PM 31.6047 -96.0572 343° North 371 427 25,400 -1,080 Descending Fort Worth Center
03:59PM 31.7136 -96.0872 347° North 390 449 24,300 -1,740 Descending Fort Worth Center
04:00PM 31.8164 -96.1150 347° North 393 452 22,000 -2,280 Descending Fort Worth Center
04:01PM 31.9208 -96.1456 346° North 386 444 19,800 -2,100 Descending Fort Worth Center
04:02PM 32.0131 -96.1711 347° North 363 418 17,800 -1,920 Descending Fort Worth Center
04:03PM 32.0969 -96.1947 347° North 343 395 16,000 -1,980 Descending Fort Worth Center
04:04PM 32.1889 -96.2253 344° North 335 386 13,900 -2,100 Descending Fort Worth Center
04:05PM 32.2750 -96.2708 336° Northwest 327 376 11,800 -1,800 Descending Fort Worth Center
04:06PM 32.3547 -96.3189 333° Northwest 318 366 10,300 -1,200 Descending Fort Worth Center
04:07PM 32.4197 -96.3600 332° Northwest 290 334 9,400 -780 Descending Fort Worth Center
04:08PM 32.4911 -96.4036 333° Northwest 277 319 8,800 -1,200 Descending Fort Worth Center
04:09PM 32.5625 -96.4447 334° Northwest 283 326 7,000 -1,620 Descending Fort Worth Center
04:10PM 32.6294 -96.4858 333° Northwest 283 326 5,600 -1,020 Descending Fort Worth Center
04:11PM 32.6967 -96.5322 330° Northwest 283 326 5,000 -300 Descending Fort Worth Center
04:12PM 32.7492 -96.5736 326° Northwest 241 277 5,000  Level Fort Worth Center
04:13PM 32.8039 -96.6200 325° Northwest 235 270 5,000 -420 Level Fort Worth Center
04:14PM 32.8583 -96.6617 327° Northwest 235 270 4,200 -780 Descending Fort Worth Center
04:15PM 32.8833 -96.6833 324° Northwest 234 269 4,000 -180 Descending Dallas / Fort Worth TRACON
04:16PM 32.9167 -96.7333 308° West 231 266 4,000  Level Dallas / Fort Worth TRACON
04:17PM 32.9333 -96.8167 283° West 231 266 4,100  Climbing Dallas / Fort Worth TRACON
04:18PM 32.9667 -96.8667 308° West 190 219 4,000 -780 Descending Dallas / Fort Worth TRACON
04:19PM 32.9333 -96.9167 232° Southwest 145 167 2,600 -1,140 Descending Dallas / Fort Worth TRACON
04:20PM 32.9000 -96.9167 180° South 148 170 1,900 -840 Descending Dallas / Fort Worth TRACON
04:21PM 32.8667 -96.8833 140° Southeast 144 166 1,000 -840 Descending Dallas / Fort Worth TRACON
04:23PM 32.8471 -96.8518 146° Southeast  Level Estimated